Mayport Ns (Adm David L. Mcdonald Field) Airport Mayport US
ICAO: KNRB
IATA: NRB
Category: Medium
Scheduled Services: No

Elevation: 15 ft
TransAlt. 18000 ft.

Airport Communications:
JACKSONVILLE APP/DEP:124.9
ATIS:26.86
GND:126.5
PTD:30.85
TWR:118.75

KNRB Zoom In..

If you have problems with the map follow the link
https://www.worldairports.se/pages/airport.php?
ICAO=KNRB

Runways:

(A) RW 05 length 8001 ft width 200 ft
---- / hdg 46

(B) RW 23 length 8001 ft width 200 ft
---- / hdg 226

Location; KNRB
Day. 14 / Time. 10.52 Zulu
* Altimeter: 30.12
* Temperature: 20° c. 68°f.
* Wind from: 020° Speed 11 kn.
Dewpoint: 18° c.
Visibility: 10 Statute Miles.
Clouds: Overcast 1000 ft.

KNRB 141052Z 02011KT 10SM OVC010 20/18 A3012 RMK SLP200 T02000183


Wind From 020°
Speed 11 kn.

 
 
jpsmedia.com for Web Design worldairports.se 2018   terms of use